createdAt,value
2019-03-25T00:00:20.986Z,19.2
2019-03-25T00:01:20.728Z,19.2
2019-03-25T00:02:20.760Z,19.2
2019-03-25T00:03:20.839Z,19.18
2019-03-25T00:04:20.826Z,19.17
2019-03-25T00:05:20.845Z,19.18
2019-03-25T00:06:20.766Z,19.17
2019-03-25T00:07:20.793Z,19.18
2019-03-25T00:08:20.959Z,19.17
2019-03-25T00:09:20.799Z,19.17
2019-03-25T00:10:20.823Z,19.16
2019-03-25T00:11:20.936Z,19.14
2019-03-25T00:12:20.873Z,19.14
2019-03-25T00:13:20.932Z,19.13
2019-03-25T00:14:21.075Z,19.15
2019-03-25T00:15:20.987Z,19.14
2019-03-25T00:16:20.949Z,19.14
2019-03-25T00:17:20.941Z,19.14
2019-03-25T00:18:20.932Z,19.14
2019-03-25T00:19:20.968Z,19.13
2019-03-25T00:20:20.746Z,19.13
2019-03-25T00:21:20.999Z,19.13
2019-03-25T00:22:20.879Z,19.1
2019-03-25T00:23:20.898Z,19.1
2019-03-25T00:24:20.908Z,19.1
2019-03-25T00:25:20.855Z,19.11
2019-03-25T00:26:20.888Z,19.11
2019-03-25T00:27:20.816Z,19.1
2019-03-25T00:28:20.903Z,19.07
2019-03-25T00:29:20.865Z,19.11
2019-03-25T00:30:20.892Z,19.09
2019-03-25T00:31:20.933Z,19.09
2019-03-25T00:32:20.938Z,19.08
2019-03-25T00:33:20.927Z,19.09
2019-03-25T00:34:20.969Z,19.06
2019-03-25T00:35:21.243Z,19.06
2019-03-25T00:36:21.350Z,19.09
2019-03-25T00:37:21.362Z,19.07
2019-03-25T00:38:20.854Z,19.08
2019-03-25T00:39:20.731Z,19.06
2019-03-25T00:40:20.853Z,19.05
2019-03-25T00:41:20.749Z,19.08
2019-03-25T00:42:20.744Z,19.06
2019-03-25T00:43:20.905Z,19.07
2019-03-25T00:44:20.781Z,19.06
2019-03-25T00:45:20.837Z,19.05
2019-03-25T00:46:20.833Z,19.01
2019-03-25T00:47:20.811Z,19.03
2019-03-25T00:48:20.843Z,19.01
2019-03-25T00:49:20.999Z,19
2019-03-25T00:50:21.139Z,19.01
2019-03-25T00:51:20.886Z,19.01
2019-03-25T00:52:20.940Z,19.01
2019-03-25T00:53:20.913Z,19.02
2019-03-25T00:54:20.947Z,18.99
2019-03-25T00:55:21.064Z,19.01
2019-03-25T00:56:20.795Z,18.99
2019-03-25T00:57:20.804Z,18.98
2019-03-25T00:58:20.872Z,18.98
2019-03-25T00:59:20.874Z,18.99
2019-03-25T01:00:20.878Z,18.98
2019-03-25T01:01:20.973Z,18.98
2019-03-25T01:02:20.823Z,18.99
2019-03-25T01:03:20.947Z,18.97
2019-03-25T01:04:20.879Z,18.96
2019-03-25T01:05:20.861Z,18.97
2019-03-25T01:06:20.975Z,18.98
2019-03-25T01:07:20.905Z,18.96
2019-03-25T01:08:20.920Z,18.99
2019-03-25T01:09:21.062Z,18.97
2019-03-25T01:10:20.947Z,18.97
2019-03-25T01:11:21.022Z,18.94
2019-03-25T01:12:20.959Z,18.95
2019-03-25T01:13:21.015Z,18.97
2019-03-25T01:14:20.686Z,18.94
2019-03-25T01:15:20.884Z,18.95
2019-03-25T01:16:20.938Z,18.97
2019-03-25T01:17:20.736Z,18.96
2019-03-25T01:18:20.741Z,18.95
2019-03-25T01:19:20.787Z,18.94
2019-03-25T01:20:21.572Z,18.94
2019-03-25T01:21:20.793Z,18.94
2019-03-25T01:22:20.874Z,18.92
2019-03-25T01:23:20.820Z,18.93
2019-03-25T01:24:20.977Z,18.92
2019-03-25T01:25:21.006Z,18.92
2019-03-25T01:26:20.947Z,18.93
2019-03-25T01:27:20.866Z,18.91
2019-03-25T01:28:21.085Z,18.89
2019-03-25T01:29:20.884Z,18.89
2019-03-25T01:30:20.892Z,18.91
2019-03-25T01:31:21.040Z,18.91
2019-03-25T01:32:21.019Z,18.92
2019-03-25T01:33:20.718Z,18.87
2019-03-25T01:34:20.777Z,18.87
2019-03-25T01:35:20.758Z,18.91
2019-03-25T01:36:20.755Z,18.88
2019-03-25T01:37:20.898Z,18.87
2019-03-25T01:38:20.772Z,18.88
2019-03-25T01:39:20.873Z,18.89
2019-03-25T01:40:20.832Z,18.88
2019-03-25T01:41:21.064Z,18.88
2019-03-25T01:42:20.872Z,18.88
2019-03-25T01:43:20.962Z,18.86
2019-03-25T01:44:20.908Z,18.88
2019-03-25T01:45:20.960Z,18.87
2019-03-25T01:46:20.903Z,18.87
2019-03-25T01:47:21.147Z,18.87
2019-03-25T01:48:20.982Z,18.84
2019-03-25T01:49:20.950Z,18.88
2019-03-25T01:50:20.916Z,18.87
2019-03-25T01:51:20.959Z,18.87
2019-03-25T01:52:20.690Z,18.88
2019-03-25T01:53:20.678Z,18.84
2019-03-25T01:54:20.764Z,18.85
2019-03-25T01:55:20.742Z,18.88
2019-03-25T01:56:20.765Z,18.84
2019-03-25T01:57:20.819Z,18.84
2019-03-25T01:58:20.778Z,18.84
2019-03-25T01:59:20.780Z,18.84
2019-03-25T02:00:20.780Z,18.83
2019-03-25T02:01:20.952Z,18.83
2019-03-25T02:02:21.144Z,18.85
2019-03-25T02:03:21.270Z,18.84
2019-03-25T02:04:20.866Z,18.82
2019-03-25T02:05:20.839Z,18.83
2019-03-25T02:06:20.998Z,18.82
2019-03-25T02:07:20.905Z,18.82
2019-03-25T02:08:20.898Z,18.82
2019-03-25T02:09:21.026Z,18.84
2019-03-25T02:10:20.953Z,18.82
2019-03-25T02:11:22.660Z,18.82
2019-03-25T02:12:20.711Z,18.8
2019-03-25T02:13:20.815Z,18.79
2019-03-25T02:14:20.871Z,18.83
2019-03-25T02:15:20.747Z,18.8
2019-03-25T02:16:20.799Z,18.8
2019-03-25T02:17:20.809Z,18.81
2019-03-25T02:18:20.791Z,18.81
2019-03-25T02:19:20.846Z,18.77
2019-03-25T02:20:27.166Z,18.78
2019-03-25T02:21:20.942Z,18.77
2019-03-25T02:22:20.895Z,18.79
2019-03-25T02:23:20.857Z,18.78
2019-03-25T02:24:21.221Z,18.79
2019-03-25T02:25:26.288Z,18.8
2019-03-25T02:26:20.925Z,18.78
2019-03-25T02:27:21.058Z,18.8
2019-03-25T02:28:20.957Z,18.77
2019-03-25T02:29:20.661Z,18.77
2019-03-25T02:30:20.629Z,18.78
2019-03-25T02:31:20.747Z,18.76
2019-03-25T02:32:20.764Z,18.79
2019-03-25T02:33:20.802Z,18.78
2019-03-25T02:34:20.767Z,18.77
2019-03-25T02:35:20.868Z,18.79
2019-03-25T02:36:20.784Z,18.77
2019-03-25T02:37:20.834Z,18.77
2019-03-25T02:38:20.762Z,18.77
2019-03-25T02:39:20.979Z,18.77
2019-03-25T02:40:20.918Z,18.74
2019-03-25T02:41:20.854Z,18.76
2019-03-25T02:42:20.838Z,18.76
2019-03-25T02:43:20.844Z,18.72
2019-03-25T02:44:20.959Z,18.76
2019-03-25T02:45:20.924Z,18.73
2019-03-25T02:46:21.266Z,18.76
2019-03-25T02:47:20.684Z,18.74
2019-03-25T02:48:20.707Z,18.72
2019-03-25T02:49:20.759Z,18.71
2019-03-25T02:50:20.763Z,18.72
2019-03-25T02:51:20.757Z,18.73
2019-03-25T02:52:20.799Z,18.71
2019-03-25T02:53:20.778Z,18.72
2019-03-25T02:54:20.826Z,18.72
2019-03-25T02:55:20.819Z,18.69
2019-03-25T02:56:20.845Z,18.72
2019-03-25T02:57:20.806Z,18.71
2019-03-25T02:58:21.051Z,18.71
2019-03-25T02:59:20.990Z,18.7
2019-03-25T03:00:20.869Z,18.69
2019-03-25T03:01:20.895Z,18.72
2019-03-25T03:02:20.985Z,18.68
2019-03-25T03:03:21.010Z,18.72
2019-03-25T03:04:20.958Z,18.7
2019-03-25T03:05:20.927Z,18.7
2019-03-25T03:06:20.704Z,18.7
2019-03-25T03:07:20.735Z,18.7
2019-03-25T03:08:20.808Z,18.7
2019-03-25T03:09:20.713Z,18.7
2019-03-25T03:10:20.793Z,18.7
2019-03-25T03:11:20.717Z,18.71
2019-03-25T03:12:20.860Z,18.69
2019-03-25T03:13:20.882Z,18.68
2019-03-25T03:14:20.911Z,18.69
2019-03-25T03:15:20.925Z,18.69
2019-03-25T03:16:20.813Z,18.69
2019-03-25T03:17:20.737Z,18.69
2019-03-25T03:18:21.026Z,18.68
2019-03-25T03:19:20.861Z,18.66
2019-03-25T03:20:20.874Z,18.68
2019-03-25T03:21:20.837Z,18.68
2019-03-25T03:22:20.871Z,18.67
2019-03-25T03:23:20.890Z,18.68
2019-03-25T03:24:20.780Z,18.66
2019-03-25T03:25:20.903Z,18.67
2019-03-25T03:26:20.728Z,18.65
2019-03-25T03:27:20.827Z,18.66
2019-03-25T03:28:20.769Z,18.66
2019-03-25T03:29:20.822Z,18.64
2019-03-25T03:30:20.842Z,18.65
2019-03-25T03:31:21.006Z,18.64
2019-03-25T03:32:20.881Z,18.68
2019-03-25T03:33:20.952Z,18.63
2019-03-25T03:34:20.943Z,18.65
2019-03-25T03:35:20.946Z,18.64
2019-03-25T03:36:20.921Z,18.66
2019-03-25T03:37:20.907Z,18.65
2019-03-25T03:38:20.941Z,18.66
2019-03-25T03:39:20.901Z,18.65
2019-03-25T03:40:21.018Z,18.64
2019-03-25T03:41:20.881Z,18.66
2019-03-25T03:42:21.040Z,18.65
2019-03-25T03:43:20.668Z,18.63
2019-03-25T03:44:20.927Z,18.66
2019-03-25T03:45:20.706Z,18.63
2019-03-25T03:46:20.721Z,18.64
2019-03-25T03:47:20.690Z,18.62
2019-03-25T03:48:20.722Z,18.64
2019-03-25T03:49:20.807Z,18.63
2019-03-25T03:50:21.124Z,18.63
2019-03-25T03:51:20.938Z,18.59
2019-03-25T03:52:20.828Z,18.59
2019-03-25T03:53:20.777Z,18.63
2019-03-25T03:54:20.762Z,18.59
2019-03-25T03:55:20.971Z,18.57
2019-03-25T03:56:20.792Z,18.59
2019-03-25T03:57:20.863Z,18.59
2019-03-25T03:58:20.984Z,18.61
2019-03-25T03:59:20.962Z,18.59
2019-03-25T04:00:20.862Z,18.61
2019-03-25T04:01:20.924Z,18.57
2019-03-25T04:02:20.785Z,18.59
2019-03-25T04:03:20.861Z,18.61
2019-03-25T04:04:20.733Z,18.57
2019-03-25T04:05:20.858Z,18.62
2019-03-25T04:06:20.768Z,18.62
2019-03-25T04:07:20.842Z,18.61
2019-03-25T04:08:20.865Z,18.59
2019-03-25T04:09:20.850Z,18.58
2019-03-25T04:10:20.816Z,18.59
2019-03-25T04:11:20.879Z,18.58
2019-03-25T04:12:21.031Z,18.57
2019-03-25T04:13:21.220Z,18.57
2019-03-25T04:14:20.941Z,18.57
2019-03-25T04:15:20.857Z,18.56
2019-03-25T04:16:20.952Z,18.57
2019-03-25T04:17:20.884Z,18.56
2019-03-25T04:18:20.981Z,18.55
2019-03-25T04:19:20.934Z,18.56
2019-03-25T04:20:20.609Z,18.57
2019-03-25T04:21:20.686Z,18.57
2019-03-25T04:22:20.695Z,18.57
2019-03-25T04:23:20.759Z,18.54
2019-03-25T04:24:20.699Z,18.56
2019-03-25T04:25:20.909Z,18.54
2019-03-25T04:26:29.880Z,18.54
2019-03-25T04:27:20.757Z,18.55
2019-03-25T04:28:20.739Z,18.54
2019-03-25T04:29:20.794Z,18.54
2019-03-25T04:30:20.781Z,18.55
2019-03-25T04:31:20.829Z,18.55
2019-03-25T04:32:20.777Z,18.56
2019-03-25T04:33:20.812Z,18.54
2019-03-25T04:34:20.900Z,18.53
2019-03-25T04:35:20.800Z,18.54
2019-03-25T04:36:20.945Z,18.53
2019-03-25T04:37:20.987Z,18.55
2019-03-25T04:38:20.871Z,18.57
2019-03-25T04:39:21.044Z,18.56
2019-03-25T04:40:20.689Z,18.57
2019-03-25T04:41:20.791Z,18.57
2019-03-25T04:42:20.681Z,18.57
2019-03-25T04:43:20.818Z,18.56
2019-03-25T04:44:20.728Z,18.58
2019-03-25T04:45:20.709Z,18.59
2019-03-25T04:46:20.875Z,18.58
2019-03-25T04:47:20.758Z,18.61
2019-03-25T04:48:20.758Z,18.62
2019-03-25T04:49:20.835Z,18.61
2019-03-25T04:50:20.912Z,18.66
2019-03-25T04:51:20.818Z,18.66
2019-03-25T04:52:20.842Z,18.68
2019-03-25T04:53:21.101Z,18.67
2019-03-25T04:54:20.845Z,18.69
2019-03-25T04:55:21.580Z,18.71
2019-03-25T04:56:21.137Z,18.72
2019-03-25T04:57:20.984Z,18.74
2019-03-25T04:58:20.646Z,18.72
2019-03-25T04:59:20.618Z,18.77
2019-03-25T05:00:20.647Z,18.74
2019-03-25T05:01:20.674Z,18.79
2019-03-25T05:02:20.685Z,18.81
2019-03-25T05:03:20.672Z,18.83
2019-03-25T05:04:20.708Z,18.84
2019-03-25T05:05:20.806Z,18.85
2019-03-25T05:06:20.719Z,18.87
2019-03-25T05:07:20.957Z,18.91
2019-03-25T05:08:20.726Z,18.91
2019-03-25T05:09:20.732Z,18.94
2019-03-25T05:10:20.771Z,18.96
2019-03-25T05:11:31.166Z,18.99
2019-03-25T05:12:20.996Z,18.99
2019-03-25T05:13:20.860Z,19
2019-03-25T05:14:20.919Z,19.02
2019-03-25T05:15:20.830Z,19.05
2019-03-25T05:16:20.877Z,19.06
2019-03-25T05:17:20.737Z,19.08
2019-03-25T05:18:20.711Z,19.11
2019-03-25T05:19:20.682Z,19.13
2019-03-25T05:20:20.646Z,19.14
2019-03-25T05:21:21.032Z,19.13
2019-03-25T05:22:20.818Z,19.16
2019-03-25T05:23:20.711Z,19.15
2019-03-25T05:24:20.718Z,19.18
2019-03-25T05:25:20.761Z,19.21
2019-03-25T05:26:20.805Z,19.22
2019-03-25T05:27:21.119Z,19.24
2019-03-25T05:28:20.920Z,19.25
2019-03-25T05:29:20.779Z,19.28
2019-03-25T05:30:23.234Z,19.28
2019-03-25T05:31:20.850Z,19.29
2019-03-25T05:32:20.824Z,19.29
2019-03-25T05:33:20.837Z,19.31
2019-03-25T05:34:20.881Z,19.32
2019-03-25T05:35:20.927Z,19.32
2019-03-25T05:36:20.586Z,19.36
2019-03-25T05:37:20.621Z,19.36
2019-03-25T05:38:20.622Z,19.38
2019-03-25T05:39:20.619Z,19.38
2019-03-25T05:40:20.686Z,19.38
2019-03-25T05:41:20.743Z,19.4
2019-03-25T05:42:20.772Z,19.4
2019-03-25T05:43:21.493Z,19.41
2019-03-25T05:44:20.702Z,19.41
2019-03-25T05:45:20.738Z,19.41
2019-03-25T05:46:20.734Z,19.43
2019-03-25T05:47:20.738Z,19.42
2019-03-25T05:48:20.767Z,19.43
2019-03-25T05:49:20.881Z,19.45
2019-03-25T05:50:20.792Z,19.45
2019-03-25T05:51:20.801Z,19.46
2019-03-25T05:52:20.813Z,19.47
2019-03-25T05:53:20.818Z,19.48
2019-03-25T05:54:20.869Z,19.47
2019-03-25T05:55:20.636Z,19.48
2019-03-25T05:56:20.763Z,19.5
2019-03-25T05:57:20.676Z,19.5
2019-03-25T05:58:20.708Z,19.47
2019-03-25T05:59:20.715Z,19.48
2019-03-25T06:00:20.837Z,19.47
2019-03-25T06:01:20.730Z,19.48
2019-03-25T06:02:20.815Z,19.48
2019-03-25T06:03:20.723Z,19.5
2019-03-25T06:04:20.912Z,19.52
2019-03-25T06:05:20.748Z,19.5
2019-03-25T06:06:20.785Z,19.5
2019-03-25T06:07:20.834Z,19.48
2019-03-25T06:08:20.766Z,19.5
2019-03-25T06:09:20.943Z,19.5
2019-03-25T06:10:20.834Z,19.5
2019-03-25T06:11:20.838Z,19.5
2019-03-25T06:12:20.977Z,19.5
2019-03-25T06:13:20.616Z,19.47
2019-03-25T06:14:20.706Z,19.5
2019-03-25T06:15:20.605Z,19.5
2019-03-25T06:16:20.644Z,19.5
2019-03-25T06:17:20.632Z,19.5
2019-03-25T06:18:20.714Z,19.51
2019-03-25T06:19:20.714Z,19.5
2019-03-25T06:20:20.753Z,19.5
2019-03-25T06:21:20.686Z,19.46
2019-03-25T06:22:20.954Z,19.5
2019-03-25T06:23:20.728Z,19.5
2019-03-25T06:24:20.770Z,19.46
2019-03-25T06:25:20.844Z,19.47
2019-03-25T06:26:20.911Z,19.45
2019-03-25T06:27:20.938Z,19.46
2019-03-25T06:28:20.811Z,19.46
2019-03-25T06:29:20.897Z,19.46
2019-03-25T06:30:20.911Z,19.46
2019-03-25T06:31:20.666Z,19.45
2019-03-25T06:32:20.643Z,19.43
2019-03-25T06:33:20.723Z,19.44
2019-03-25T06:34:20.683Z,19.44
2019-03-25T06:35:20.653Z,19.45
2019-03-25T06:36:20.667Z,19.45
2019-03-25T06:37:20.768Z,19.45
2019-03-25T06:38:20.694Z,19.43
2019-03-25T06:39:20.703Z,19.44
2019-03-25T06:40:20.801Z,19.42
2019-03-25T06:41:20.726Z,19.43
2019-03-25T06:42:20.818Z,19.44
2019-03-25T06:43:21.277Z,19.43
2019-03-25T06:44:21.110Z,19.42
2019-03-25T06:45:21.131Z,19.42
2019-03-25T06:46:22.566Z,19.43
2019-03-25T06:47:20.806Z,19.42
2019-03-25T06:48:20.975Z,19.42
2019-03-25T06:49:21.103Z,19.4
2019-03-25T06:50:20.636Z,19.41
2019-03-25T06:51:20.586Z,19.39
2019-03-25T06:52:20.631Z,19.4
2019-03-25T06:53:20.607Z,19.4
2019-03-25T06:54:20.699Z,19.41
2019-03-25T06:55:20.688Z,19.38
2019-03-25T06:56:20.676Z,19.39
2019-03-25T06:57:26.217Z,19.4
2019-03-25T06:58:20.840Z,19.38
2019-03-25T06:59:20.705Z,19.39
2019-03-25T07:00:20.700Z,19.37
2019-03-25T07:01:20.734Z,19.4
2019-03-25T07:02:20.757Z,19.38
2019-03-25T07:03:20.713Z,19.38
2019-03-25T07:04:20.783Z,19.39
2019-03-25T07:05:21.286Z,19.39
2019-03-25T07:06:20.796Z,19.4
2019-03-25T07:07:20.831Z,19.4
2019-03-25T07:08:20.831Z,19.39
2019-03-25T07:09:20.616Z,19.36
2019-03-25T07:10:20.723Z,19.39
2019-03-25T07:11:20.718Z,19.37
2019-03-25T07:12:20.656Z,19.39
2019-03-25T07:13:20.722Z,19.4
2019-03-25T07:14:20.769Z,19.38
2019-03-25T07:15:20.742Z,19.38
2019-03-25T07:16:20.737Z,19.38
2019-03-25T07:17:20.706Z,19.38
2019-03-25T07:18:20.731Z,19.39
2019-03-25T07:19:20.878Z,19.38
2019-03-25T07:20:20.764Z,19.38
2019-03-25T07:21:20.807Z,19.4
2019-03-25T07:22:20.820Z,19.38
2019-03-25T07:23:20.792Z,19.38
2019-03-25T07:24:20.862Z,19.37
2019-03-25T07:25:20.844Z,19.38
2019-03-25T07:26:20.908Z,19.39
2019-03-25T07:27:20.721Z,19.36
2019-03-25T07:28:20.626Z,19.4
2019-03-25T07:29:20.699Z,19.39
2019-03-25T07:30:20.586Z,19.4
2019-03-25T07:31:20.755Z,19.38
2019-03-25T07:32:20.741Z,19.4
2019-03-25T07:33:20.615Z,19.39
2019-03-25T07:34:20.721Z,19.4
2019-03-25T07:35:22.703Z,19.42
2019-03-25T07:36:20.671Z,19.41
2019-03-25T07:37:20.713Z,19.36
2019-03-25T07:38:20.710Z,19.32
2019-03-25T07:39:20.827Z,19.28
2019-03-25T07:40:20.760Z,19.24
2019-03-25T07:41:20.761Z,19.17
2019-03-25T07:42:20.763Z,19.17
2019-03-25T07:43:20.905Z,19.13
2019-03-25T07:44:20.777Z,19.12
2019-03-25T07:45:20.634Z,19.13
2019-03-25T07:46:20.611Z,19.14
2019-03-25T07:47:20.680Z,19.14
2019-03-25T07:48:20.882Z,19.15
2019-03-25T07:49:20.745Z,19.16
2019-03-25T07:50:20.633Z,19.18
2019-03-25T07:51:20.664Z,19.21
2019-03-25T07:52:20.806Z,19.24
2019-03-25T07:53:20.759Z,19.25
2019-03-25T07:54:20.772Z,19.26
2019-03-25T07:55:20.777Z,19.29
2019-03-25T07:56:20.763Z,19.28
2019-03-25T07:57:20.897Z,19.33
2019-03-25T07:58:20.873Z,19.35
2019-03-25T07:59:20.809Z,19.37
2019-03-25T08:00:20.875Z,19.4
2019-03-25T08:01:20.837Z,19.39
2019-03-25T08:02:20.869Z,19.4
2019-03-25T08:03:20.925Z,19.42
2019-03-25T08:04:20.722Z,19.44
2019-03-25T08:05:20.852Z,19.46
2019-03-25T08:06:20.733Z,19.48
2019-03-25T08:07:20.745Z,19.5
2019-03-25T08:08:20.625Z,19.5
2019-03-25T08:09:21.807Z,19.52
2019-03-25T08:10:20.836Z,19.55
2019-03-25T08:11:20.658Z,19.56
2019-03-25T08:12:20.734Z,19.59
2019-03-25T08:13:21.668Z,19.61
2019-03-25T08:14:20.757Z,19.62
2019-03-25T08:15:20.721Z,19.67
2019-03-25T08:16:20.958Z,19.67
2019-03-25T08:17:20.791Z,19.67
2019-03-25T08:18:20.706Z,19.7
2019-03-25T08:19:20.745Z,19.7
2019-03-25T08:20:20.753Z,19.7
2019-03-25T08:21:20.915Z,19.74
2019-03-25T08:22:20.913Z,19.77
2019-03-25T08:23:20.719Z,19.81
2019-03-25T08:24:20.569Z,19.82
2019-03-25T08:25:20.645Z,19.83
2019-03-25T08:26:20.620Z,19.85
2019-03-25T08:27:20.726Z,19.88
2019-03-25T08:28:20.668Z,19.91
2019-03-25T08:29:20.621Z,19.94
2019-03-25T08:30:20.691Z,19.95
2019-03-25T08:31:20.764Z,19.99
2019-03-25T08:32:20.864Z,20.01
2019-03-25T08:33:20.755Z,20.03
2019-03-25T08:34:20.859Z,20.04
2019-03-25T08:35:20.696Z,20.05
2019-03-25T08:36:20.781Z,20.07
2019-03-25T08:37:20.871Z,20.09
2019-03-25T08:38:20.732Z,20.11
2019-03-25T08:39:20.836Z,20.12
2019-03-25T08:40:20.855Z,20.13
2019-03-25T08:41:20.811Z,20.14
2019-03-25T08:42:20.523Z,20.17
2019-03-25T08:43:20.577Z,20.2
2019-03-25T08:44:20.676Z,20.19
2019-03-25T08:45:20.543Z,20.2
2019-03-25T08:46:20.633Z,20.22
2019-03-25T08:47:20.588Z,20.19
2019-03-25T08:48:20.601Z,20.2
2019-03-25T08:49:20.805Z,20.24
2019-03-25T08:50:20.623Z,20.21
2019-03-25T08:51:20.646Z,20.24
2019-03-25T08:52:20.718Z,20.22
2019-03-25T08:53:20.777Z,20.22
2019-03-25T08:54:20.840Z,20.21
2019-03-25T08:55:20.817Z,20.22
2019-03-25T08:56:20.727Z,20.24
2019-03-25T08:57:20.814Z,20.22
2019-03-25T08:58:20.786Z,20.22
2019-03-25T08:59:20.764Z,20.24
2019-03-25T09:00:20.803Z,20.22
2019-03-25T09:01:20.594Z,20.24
2019-03-25T09:02:20.675Z,20.22
2019-03-25T09:03:20.583Z,20.25
2019-03-25T09:04:20.632Z,20.24
2019-03-25T09:05:20.690Z,20.22
2019-03-25T09:06:20.628Z,20.21
2019-03-25T09:07:20.666Z,20.24
2019-03-25T09:08:20.739Z,20.24
2019-03-25T09:09:20.713Z,20.24
2019-03-25T09:10:20.678Z,20.28
2019-03-25T09:11:20.696Z,20.26
2019-03-25T09:12:20.686Z,20.26
2019-03-25T09:13:20.703Z,20.25
2019-03-25T09:14:21.267Z,20.26
2019-03-25T09:15:20.723Z,20.26
2019-03-25T09:16:20.811Z,20.27
2019-03-25T09:17:20.787Z,20.26
2019-03-25T09:18:20.810Z,20.27
2019-03-25T09:19:20.928Z,20.26
2019-03-25T09:20:20.538Z,20.27
2019-03-25T09:21:20.550Z,20.29
2019-03-25T09:22:20.590Z,20.27
2019-03-25T09:23:20.577Z,20.29
2019-03-25T09:24:20.655Z,20.29
2019-03-25T09:25:20.711Z,20.29
2019-03-25T09:26:20.610Z,20.28
2019-03-25T09:27:20.652Z,20.3
2019-03-25T09:28:25.029Z,20.3
2019-03-25T09:29:20.622Z,20.3
2019-03-25T09:30:20.748Z,20.31
2019-03-25T09:31:20.784Z,20.32
2019-03-25T09:32:20.682Z,20.32
2019-03-25T09:33:20.743Z,20.32
2019-03-25T09:34:20.726Z,20.33
2019-03-25T09:35:20.874Z,20.33
2019-03-25T09:36:20.940Z,20.35
2019-03-25T09:37:20.758Z,20.34
2019-03-25T09:38:20.859Z,20.34
2019-03-25T09:39:20.543Z,20.34
2019-03-25T09:40:20.598Z,20.36
2019-03-25T09:41:20.633Z,20.36
2019-03-25T09:42:20.647Z,20.4
2019-03-25T09:43:20.653Z,20.39
2019-03-25T09:44:20.694Z,20.39
2019-03-25T09:45:20.722Z,20.4
2019-03-25T09:46:20.672Z,20.39
2019-03-25T09:47:20.648Z,20.39
2019-03-25T09:48:20.793Z,20.42
2019-03-25T09:49:20.793Z,20.41
2019-03-25T09:50:20.833Z,20.43
2019-03-25T09:51:20.912Z,20.43
2019-03-25T09:52:20.862Z,20.42
2019-03-25T09:53:20.758Z,20.46
2019-03-25T09:54:21.093Z,20.47
2019-03-25T09:55:20.804Z,20.49
2019-03-25T09:56:20.936Z,20.49
2019-03-25T09:57:20.694Z,20.51
2019-03-25T09:58:20.566Z,20.53
2019-03-25T09:59:20.689Z,20.53
2019-03-25T10:00:20.587Z,20.54
2019-03-25T10:01:20.566Z,20.56
2019-03-25T10:02:20.600Z,20.57
2019-03-25T10:03:20.602Z,20.58
2019-03-25T10:04:20.633Z,20.58
2019-03-25T10:05:20.612Z,20.59
2019-03-25T10:06:20.691Z,20.62
2019-03-25T10:07:20.695Z,20.62
2019-03-25T10:08:20.669Z,20.64
2019-03-25T10:09:20.659Z,20.64
2019-03-25T10:10:20.721Z,20.68
2019-03-25T10:11:20.727Z,20.68
2019-03-25T10:12:20.860Z,20.7
2019-03-25T10:13:20.805Z,20.71
2019-03-25T10:14:20.791Z,20.72
2019-03-25T10:15:20.514Z,20.72
2019-03-25T10:16:20.599Z,20.75
2019-03-25T10:17:20.695Z,20.75
2019-03-25T10:18:20.579Z,20.76
2019-03-25T10:19:20.760Z,20.77
2019-03-25T10:20:21.028Z,20.8
2019-03-25T10:21:20.621Z,20.78
2019-03-25T10:22:20.786Z,20.79
2019-03-25T10:23:20.759Z,20.81
2019-03-25T10:24:28.294Z,20.84
2019-03-25T10:25:20.798Z,20.85
2019-03-25T10:26:20.695Z,20.85
2019-03-25T10:27:20.710Z,20.86
2019-03-25T10:28:20.867Z,20.87
2019-03-25T10:29:20.789Z,20.85
2019-03-25T10:30:20.759Z,20.85
2019-03-25T10:31:20.872Z,20.85
2019-03-25T10:32:20.628Z,20.85
2019-03-25T10:33:20.529Z,20.83
2019-03-25T10:34:20.702Z,20.83
2019-03-25T10:35:20.639Z,20.8
2019-03-25T10:36:20.596Z,20.8
2019-03-25T10:37:20.567Z,20.77
2019-03-25T10:38:20.570Z,20.76
2019-03-25T10:39:20.572Z,20.75
2019-03-25T10:40:20.629Z,20.76
2019-03-25T10:41:20.646Z,20.74
2019-03-25T10:42:20.710Z,20.74
2019-03-25T10:43:20.677Z,20.73
2019-03-25T10:44:20.649Z,20.72
2019-03-25T10:45:21.018Z,20.7
2019-03-25T10:46:21.159Z,20.68
2019-03-25T10:47:20.723Z,20.72
2019-03-25T10:48:20.743Z,20.71
2019-03-25T10:49:20.776Z,20.71
2019-03-25T10:50:20.643Z,20.71
2019-03-25T10:51:20.580Z,20.7
2019-03-25T10:52:20.607Z,20.71
2019-03-25T10:53:20.577Z,20.71
2019-03-25T10:54:20.730Z,20.68
2019-03-25T10:55:20.678Z,20.7
2019-03-25T10:56:20.665Z,20.68
2019-03-25T10:57:20.640Z,20.69
2019-03-25T10:58:20.628Z,20.7
2019-03-25T10:59:20.665Z,20.68
2019-03-25T11:00:20.701Z,20.68
2019-03-25T11:01:20.753Z,20.68
2019-03-25T11:02:20.807Z,20.66
2019-03-25T11:03:20.727Z,20.69
2019-03-25T11:04:20.886Z,20.68
2019-03-25T11:05:20.822Z,20.68
2019-03-25T11:06:20.802Z,20.68
2019-03-25T11:07:21.116Z,20.69
2019-03-25T11:08:20.568Z,20.7
2019-03-25T11:09:20.541Z,20.66
2019-03-25T11:10:20.595Z,20.69
2019-03-25T11:11:20.542Z,20.69
2019-03-25T11:12:20.586Z,20.7
2019-03-25T11:13:20.733Z,20.7
2019-03-25T11:14:20.541Z,20.7
2019-03-25T11:15:20.604Z,20.71
2019-03-25T11:16:20.608Z,20.73
2019-03-25T11:17:20.637Z,20.71
2019-03-25T11:18:20.640Z,20.71
2019-03-25T11:19:20.879Z,20.73
2019-03-25T11:20:20.713Z,20.7
2019-03-25T11:21:20.799Z,20.75
2019-03-25T11:22:20.906Z,20.74
2019-03-25T11:23:20.706Z,20.74
2019-03-25T11:24:20.742Z,20.72
2019-03-25T11:25:20.723Z,20.72
2019-03-25T11:26:20.506Z,20.74
2019-03-25T11:27:20.527Z,20.73
2019-03-25T11:28:21.614Z,20.73
2019-03-25T11:29:20.682Z,20.69
2019-03-25T11:30:20.657Z,20.69
2019-03-25T11:31:20.665Z,20.69
2019-03-25T11:32:20.609Z,20.7
2019-03-25T11:33:20.658Z,20.68
2019-03-25T11:34:20.693Z,20.66
2019-03-25T11:35:20.675Z,20.66
2019-03-25T11:36:20.645Z,20.68
2019-03-25T11:37:20.775Z,20.65
2019-03-25T11:38:21.022Z,20.71
2019-03-25T11:39:20.793Z,20.72
2019-03-25T11:40:20.709Z,20.72
2019-03-25T11:41:20.722Z,20.74
2019-03-25T11:42:20.727Z,20.71
2019-03-25T11:43:20.731Z,20.73
2019-03-25T11:44:20.480Z,20.72
2019-03-25T11:45:20.511Z,20.73
2019-03-25T11:46:20.518Z,20.71
2019-03-25T11:47:20.666Z,20.71
2019-03-25T11:48:20.531Z,20.7
2019-03-25T11:49:20.672Z,20.7
2019-03-25T11:50:20.651Z,20.7
2019-03-25T11:51:20.597Z,20.66
2019-03-25T11:52:20.580Z,20.66
2019-03-25T11:53:20.603Z,20.65
2019-03-25T11:54:20.605Z,20.62
2019-03-25T11:55:20.626Z,20.66
2019-03-25T11:56:20.644Z,20.64
2019-03-25T11:57:20.672Z,20.65
2019-03-25T11:58:20.692Z,20.63
2019-03-25T11:59:20.716Z,20.62
2019-03-25T12:00:20.718Z,20.61
2019-03-25T12:01:20.626Z,20.62
2019-03-25T12:02:20.525Z,20.63
2019-03-25T12:03:20.519Z,20.63
2019-03-25T12:04:20.690Z,20.66
2019-03-25T12:05:20.569Z,20.66
2019-03-25T12:06:20.681Z,20.66
2019-03-25T12:07:20.642Z,20.64
2019-03-25T12:08:20.689Z,20.64
2019-03-25T12:09:20.624Z,20.65
2019-03-25T12:10:20.670Z,20.64
2019-03-25T12:11:20.997Z,20.63
2019-03-25T12:12:20.730Z,20.64
2019-03-25T12:13:20.752Z,20.64
2019-03-25T12:14:20.696Z,20.64
2019-03-25T12:15:20.784Z,20.65
2019-03-25T12:16:20.846Z,20.65
2019-03-25T12:17:20.729Z,20.65
2019-03-25T12:18:20.624Z,20.64
2019-03-25T12:19:20.520Z,20.63
2019-03-25T12:20:20.684Z,20.64
2019-03-25T12:21:20.499Z,20.64
2019-03-25T12:22:20.545Z,20.65
2019-03-25T12:23:26.915Z,20.65
2019-03-25T12:24:20.882Z,20.66
2019-03-25T12:25:20.610Z,20.66
2019-03-25T12:26:20.605Z,20.64
2019-03-25T12:27:20.735Z,20.66
2019-03-25T12:28:21.189Z,20.66
2019-03-25T12:29:30.918Z,20.66
2019-03-25T12:30:20.727Z,20.65
2019-03-25T12:31:20.646Z,20.68
2019-03-25T12:32:20.877Z,20.69
2019-03-25T12:33:20.894Z,20.68
2019-03-25T12:34:21.499Z,20.68
2019-03-25T12:35:20.715Z,20.71
2019-03-25T12:36:20.558Z,20.69
2019-03-25T12:37:20.628Z,20.69
2019-03-25T12:38:20.602Z,20.66
2019-03-25T12:39:20.529Z,20.7
2019-03-25T12:40:20.582Z,20.71
2019-03-25T12:41:20.678Z,20.7
2019-03-25T12:42:20.618Z,20.72
2019-03-25T12:43:20.598Z,20.71
2019-03-25T12:44:20.660Z,20.72
2019-03-25T12:45:20.633Z,20.72
2019-03-25T12:46:20.834Z,20.72
2019-03-25T12:47:20.660Z,20.75
2019-03-25T12:48:20.771Z,20.74
2019-03-25T12:49:20.755Z,20.73
2019-03-25T12:50:20.768Z,20.71
2019-03-25T12:51:20.771Z,20.73
2019-03-25T12:52:20.642Z,20.72
2019-03-25T12:53:20.644Z,20.73
2019-03-25T12:54:20.587Z,20.73
2019-03-25T12:55:21.053Z,20.73